sensor_id;sensor_type;location;lat;lon;timestamp;pressure;altitude;pressure_sealevel;temperature;humidity
42621;BME280;28252;53.336;-6.298;2022-10-30T00:00:24;99821.09;;;22.18;88.65
42621;BME280;28252;53.336;-6.298;2022-10-30T00:00:55;99819.25;;;22.19;88.65
42621;BME280;28252;53.336;-6.298;2022-10-30T00:01:26;99823.00;;;22.18;88.71
42621;BME280;28252;53.336;-6.298;2022-10-30T00:01:57;99819.25;;;22.19;88.74
42621;BME280;28252;53.336;-6.298;2022-10-30T00:02:28;99820.28;;;22.18;88.64
42621;BME280;28252;53.336;-6.298;2022-10-30T00:02:59;99818.41;;;22.18;88.73
42621;BME280;28252;53.336;-6.298;2022-10-30T00:03:30;99824.69;;;22.19;88.54
42621;BME280;28252;53.336;-6.298;2022-10-30T00:04:01;99821.09;;;22.18;88.68
42621;BME280;28252;53.336;-6.298;2022-10-30T00:04:32;99815.69;;;22.18;88.58
42621;BME280;28252;53.336;-6.298;2022-10-30T00:05:02;99812.97;;;22.18;88.59
42621;BME280;28252;53.336;-6.298;2022-10-30T00:05:33;99810.25;;;22.18;88.42
42621;BME280;28252;53.336;-6.298;2022-10-30T00:06:04;99810.25;;;22.18;88.54
42621;BME280;28252;53.336;-6.298;2022-10-30T00:06:35;99817.38;;;22.19;88.64
42621;BME280;28252;53.336;-6.298;2022-10-30T00:07:06;99815.69;;;22.18;88.60
42621;BME280;28252;53.336;-6.298;2022-10-30T00:07:37;99812.97;;;22.18;88.62
42621;BME280;28252;53.336;-6.298;2022-10-30T00:08:09;99816.53;;;22.19;88.63
42621;BME280;28252;53.336;-6.298;2022-10-30T00:08:40;99814.88;;;22.18;88.54
42621;BME280;28252;53.336;-6.298;2022-10-30T00:09:11;99815.69;;;22.18;88.65
42621;BME280;28252;53.336;-6.298;2022-10-30T00:09:42;99811.13;;;22.19;88.58
42621;BME280;28252;53.336;-6.298;2022-10-30T00:10:14;99815.69;;;22.18;88.06
42621;BME280;28252;53.336;-6.298;2022-10-30T00:10:45;99811.31;;;22.17;88.54
42621;BME280;28252;53.336;-6.298;2022-10-30T00:11:16;99814.88;;;22.18;88.40
42621;BME280;28252;53.336;-6.298;2022-10-30T00:11:46;99814.03;;;22.17;88.52
42621;BME280;28252;53.336;-6.298;2022-10-30T00:12:17;99816.75;;;22.17;88.64
42621;BME280;28252;53.336;-6.298;2022-10-30T00:12:48;99814.03;;;22.17;88.28
42621;BME280;28252;53.336;-6.298;2022-10-30T00:13:20;99814.03;;;22.17;88.53
42621;BME280;28252;53.336;-6.298;2022-10-30T00:13:52;99814.88;;;22.18;88.45
42621;BME280;28252;53.336;-6.298;2022-10-30T00:14:22;99815.06;;;22.16;88.46
42621;BME280;28252;53.336;-6.298;2022-10-30T00:14:53;99814.03;;;22.17;88.37
42621;BME280;28252;53.336;-6.298;2022-10-30T00:15:24;99811.31;;;22.17;88.56
42621;BME280;28252;53.336;-6.298;2022-10-30T00:15:55;99819.47;;;22.17;88.49
42621;BME280;28252;53.336;-6.298;2022-10-30T00:16:26;99813.22;;;22.17;88.37
42621;BME280;28252;53.336;-6.298;2022-10-30T00:16:57;99812.34;;;22.16;88.57
42621;BME280;28252;53.336;-6.298;2022-10-30T00:17:28;99815.06;;;22.16;88.38
42621;BME280;28252;53.336;-6.298;2022-10-30T00:17:59;99812.34;;;22.16;88.42
42621;BME280;28252;53.336;-6.298;2022-10-30T00:18:30;99808.81;;;22.16;88.32
42621;BME280;28252;53.336;-6.298;2022-10-30T00:19:01;99820.69;;;22.15;88.48
42621;BME280;28252;53.336;-6.298;2022-10-30T00:19:32;99810.69;;;22.15;88.43
42621;BME280;28252;53.336;-6.298;2022-10-30T00:20:03;99808.00;;;22.15;88.33
42621;BME280;28252;53.336;-6.298;2022-10-30T00:20:34;99814.44;;;22.14;88.37
42621;BME280;28252;53.336;-6.298;2022-10-30T00:21:09;99812.56;;;22.15;88.37
42621;BME280;28252;53.336;-6.298;2022-10-30T00:21:41;99814.44;;;22.14;88.53
42621;BME280;28252;53.336;-6.298;2022-10-30T00:22:12;99812.34;;;22.16;88.34
42621;BME280;28252;53.336;-6.298;2022-10-30T00:22:43;99816.94;;;22.16;88.33
42621;BME280;28252;53.336;-6.298;2022-10-30T00:23:14;99816.13;;;22.15;88.38
42621;BME280;28252;53.336;-6.298;2022-10-30T00:23:47;99810.69;;;22.15;88.39
42621;BME280;28252;53.336;-6.298;2022-10-30T00:24:19;99816.13;;;22.15;88.36
42621;BME280;28252;53.336;-6.298;2022-10-30T00:24:50;99816.13;;;22.15;88.32
42621;BME280;28252;53.336;-6.298;2022-10-30T00:25:21;99810.69;;;22.15;88.16
42621;BME280;28252;53.336;-6.298;2022-10-30T00:25:51;99813.41;;;22.15;88.12
42621;BME280;28252;53.336;-6.298;2022-10-30T00:26:22;99811.53;;;22.16;88.16
42621;BME280;28252;53.336;-6.298;2022-10-30T00:26:54;99806.94;;;22.16;88.15
42621;BME280;28252;53.336;-6.298;2022-10-30T00:27:25;99810.69;;;22.15;88.03
42621;BME280;28252;53.336;-6.298;2022-10-30T00:27:56;99817.97;;;22.15;88.30
42621;BME280;28252;53.336;-6.298;2022-10-30T00:28:27;99811.53;;;22.16;88.15
42621;BME280;28252;53.336;-6.298;2022-10-30T00:28:58;99811.72;;;22.14;88.13
42621;BME280;28252;53.336;-6.298;2022-10-30T00:29:29;99805.28;;;22.15;88.22
42621;BME280;28252;53.336;-6.298;2022-10-30T00:30:00;99816.13;;;22.15;88.15
42621;BME280;28252;53.336;-6.298;2022-10-30T00:30:31;99810.69;;;22.15;88.02
42621;BME280;28252;53.336;-6.298;2022-10-30T00:31:03;99806.09;;;22.16;88.02
42621;BME280;28252;53.336;-6.298;2022-10-30T00:31:34;99814.44;;;22.14;87.95
42621;BME280;28252;53.336;-6.298;2022-10-30T00:32:05;99810.69;;;22.15;88.17
42621;BME280;28252;53.336;-6.298;2022-10-30T00:32:36;99802.56;;;22.15;87.89
42621;BME280;28252;53.336;-6.298;2022-10-30T00:33:07;99810.69;;;22.15;88.06
42621;BME280;28252;53.336;-6.298;2022-10-30T00:33:38;99808.00;;;22.15;88.03
42621;BME280;28252;53.336;-6.298;2022-10-30T00:34:09;99802.56;;;22.15;87.90
42621;BME280;28252;53.336;-6.298;2022-10-30T00:34:40;99798.16;;;22.14;87.99
42621;BME280;28252;53.336;-6.298;2022-10-30T00:35:11;99804.41;;;22.15;87.95
42621;BME280;28252;53.336;-6.298;2022-10-30T00:35:46;99800.88;;;22.14;88.00
42621;BME280;28252;53.336;-6.298;2022-10-30T00:36:17;99800.88;;;22.14;87.92
42621;BME280;28252;53.336;-6.298;2022-10-30T00:36:48;99809.84;;;22.15;88.00
42621;BME280;28252;53.336;-6.298;2022-10-30T00:37:19;99809.00;;;22.14;88.00
42621;BME280;28252;53.336;-6.298;2022-10-30T00:37:50;99798.16;;;22.14;87.92
42621;BME280;28252;53.336;-6.298;2022-10-30T00:38:21;99806.31;;;22.14;87.96
42621;BME280;28252;53.336;-6.298;2022-10-30T00:38:52;99801.91;;;22.13;87.81
42621;BME280;28252;53.336;-6.298;2022-10-30T00:39:23;99801.91;;;22.13;87.92
42621;BME280;28252;53.336;-6.298;2022-10-30T00:39:54;99803.59;;;22.14;87.73
42621;BME280;28252;53.336;-6.298;2022-10-30T00:40:25;99806.31;;;22.14;87.77
42621;BME280;28252;53.336;-6.298;2022-10-30T00:40:56;99805.69;;;22.12;87.83
42621;BME280;28252;53.336;-6.298;2022-10-30T00:41:27;99805.69;;;22.12;87.91
42621;BME280;28252;53.336;-6.298;2022-10-30T00:41:58;99812.75;;;22.13;87.75
42621;BME280;28252;53.336;-6.298;2022-10-30T00:42:29;99799.44;;;22.12;87.74
42621;BME280;28252;53.336;-6.298;2022-10-30T00:43:00;99799.44;;;22.12;87.78
42621;BME280;28252;53.336;-6.298;2022-10-30T00:43:33;99801.28;;;22.11;87.86
42621;BME280;28252;53.336;-6.298;2022-10-30T00:44:30;99802.13;;;22.12;87.75
42621;BME280;28252;53.336;-6.298;2022-10-30T00:44:58;99804.00;;;22.11;87.77
42621;BME280;28252;53.336;-6.298;2022-10-30T00:45:29;99805.88;;;22.11;87.84
42621;BME280;28252;53.336;-6.298;2022-10-30T00:46:24;99805.06;;;22.10;87.77
42621;BME280;28252;53.336;-6.298;2022-10-30T00:46:51;99814.84;;;22.11;87.73
42621;BME280;28252;53.336;-6.298;2022-10-30T00:47:23;99809.41;;;22.11;87.74
42621;BME280;28252;53.336;-6.298;2022-10-30T00:47:56;99814.84;;;22.11;87.75
42621;BME280;28252;53.336;-6.298;2022-10-30T00:48:28;99813.00;;;22.12;87.64
42621;BME280;28252;53.336;-6.298;2022-10-30T00:49:01;99806.72;;;22.11;87.65
42621;BME280;28252;53.336;-6.298;2022-10-30T00:49:34;99800.25;;;22.12;87.55
42621;BME280;28252;53.336;-6.298;2022-10-30T00:50:08;99800.25;;;22.12;87.51
42621;BME280;28252;53.336;-6.298;2022-10-30T00:50:40;99806.72;;;22.11;87.73
42621;BME280;28252;53.336;-6.298;2022-10-30T00:51:11;99804.00;;;22.11;87.58
42621;BME280;28252;53.336;-6.298;2022-10-30T00:51:45;99808.59;;;22.11;87.57
42621;BME280;28252;53.336;-6.298;2022-10-30T00:52:18;99813.19;;;22.10;87.61
42621;BME280;28252;53.336;-6.298;2022-10-30T00:53:00;99809.41;;;22.11;87.65
42621;BME280;28252;53.336;-6.298;2022-10-30T00:53:32;99809.41;;;22.11;87.59
42621;BME280;28252;53.336;-6.298;2022-10-30T00:54:03;99809.41;;;22.11;87.58
42621;BME280;28252;53.336;-6.298;2022-10-30T00:54:35;99806.72;;;22.11;87.57
42621;BME280;28252;53.336;-6.298;2022-10-30T00:55:11;99809.63;;;22.10;87.46
42621;BME280;28252;53.336;-6.298;2022-10-30T00:55:48;99818.63;;;22.10;87.40
42621;BME280;28252;53.336;-6.298;2022-10-30T00:56:19;99809.41;;;22.11;87.78
42621;BME280;28252;53.336;-6.298;2022-10-30T00:56:51;99807.75;;;22.10;87.42
42621;BME280;28252;53.336;-6.298;2022-10-30T00:57:23;99804.00;;;22.11;87.51
42621;BME280;28252;53.336;-6.298;2022-10-30T00:57:55;99796.91;;;22.10;87.51
42621;BME280;28252;53.336;-6.298;2022-10-30T00:58:28;99804.00;;;22.11;87.31
42621;BME280;28252;53.336;-6.298;2022-10-30T00:59:02;99803.16;;;22.11;87.46
42621;BME280;28252;53.336;-6.298;2022-10-30T00:59:35;99809.41;;;22.11;87.39
42621;BME280;28252;53.336;-6.298;2022-10-30T01:00:06;99799.44;;;22.12;87.37
42621;BME280;28252;53.336;-6.298;2022-10-30T01:00:37;99801.28;;;22.11;87.30
42621;BME280;28252;53.336;-6.298;2022-10-30T01:01:12;99809.41;;;22.11;87.38
42621;BME280;28252;53.336;-6.298;2022-10-30T01:01:45;99803.16;;;22.11;87.23
42621;BME280;28252;53.336;-6.298;2022-10-30T01:02:18;99801.28;;;22.11;87.34
42621;BME280;28252;53.336;-6.298;2022-10-30T01:02:49;99797.75;;;22.11;87.26
42621;BME280;28252;53.336;-6.298;2022-10-30T01:03:20;99801.28;;;22.11;87.28
42621;BME280;28252;53.336;-6.298;2022-10-30T01:03:54;99798.56;;;22.11;87.15
42621;BME280;28252;53.336;-6.298;2022-10-30T01:04:26;99804.00;;;22.11;87.21
42621;BME280;28252;53.336;-6.298;2022-10-30T01:04:57;99796.91;;;22.10;87.21
42621;BME280;28252;53.336;-6.298;2022-10-30T01:05:28;99800.47;;;22.11;87.41
42621;BME280;28252;53.336;-6.298;2022-10-30T01:06:03;99803.16;;;22.11;87.19
42621;BME280;28252;53.336;-6.298;2022-10-30T01:06:37;99798.56;;;22.11;87.26
42621;BME280;28252;53.336;-6.298;2022-10-30T01:07:10;99796.91;;;22.10;87.22
42621;BME280;28252;53.336;-6.298;2022-10-30T01:07:42;99789.81;;;22.09;87.15
42621;BME280;28252;53.336;-6.298;2022-10-30T01:08:13;99794.22;;;22.10;87.32
42621;BME280;28252;53.336;-6.298;2022-10-30T01:08:44;99795.22;;;22.09;87.26
42621;BME280;28252;53.336;-6.298;2022-10-30T01:09:15;99805.25;;;22.09;87.20
42621;BME280;28252;53.336;-6.298;2022-10-30T01:09:46;99797.13;;;22.09;87.03
42621;BME280;28252;53.336;-6.298;2022-10-30T01:10:17;99806.09;;;22.09;87.16
42621;BME280;28252;53.336;-6.298;2022-10-30T01:10:48;99806.09;;;22.09;87.18
42621;BME280;28252;53.336;-6.298;2022-10-30T01:11:19;99805.25;;;22.09;87.19
42621;BME280;28252;53.336;-6.298;2022-10-30T01:11:51;99803.38;;;22.09;87.17
42621;BME280;28252;53.336;-6.298;2022-10-30T01:12:21;99796.25;;;22.08;87.32
42621;BME280;28252;53.336;-6.298;2022-10-30T01:12:52;99793.34;;;22.10;87.25
42621;BME280;28252;53.336;-6.298;2022-10-30T01:13:25;99792.53;;;22.09;87.12
42621;BME280;28252;53.336;-6.298;2022-10-30T01:13:58;99789.81;;;22.09;87.17
42621;BME280;28252;53.336;-6.298;2022-10-30T01:14:30;99789.81;;;22.09;87.13
42621;BME280;28252;53.336;-6.298;2022-10-30T01:15:03;99789.81;;;22.09;87.11
42621;BME280;28252;53.336;-6.298;2022-10-30T01:15:35;99782.69;;;22.08;87.24
42621;BME280;28252;53.336;-6.298;2022-10-30T01:16:22;99787.09;;;22.09;87.19
42621;BME280;28252;53.336;-6.298;2022-10-30T01:19:22;99783.56;;;22.09;87.00
42621;BME280;28252;53.336;-6.298;2022-10-30T01:21:10;99781.88;;;22.08;86.87
42621;BME280;28252;53.336;-6.298;2022-10-30T01:22:05;99769.16;;;22.08;86.99
42621;BME280;28252;53.336;-6.298;2022-10-30T01:24:05;99778.34;;;22.07;86.84
42621;BME280;28252;53.336;-6.298;2022-10-30T01:24:51;99775.63;;;22.07;86.91
42621;BME280;28252;53.336;-6.298;2022-10-30T01:25:31;99781.06;;;22.07;86.97
42621;BME280;28252;53.336;-6.298;2022-10-30T01:27:48;99770.19;;;22.07;86.80
42621;BME280;28252;53.336;-6.298;2022-10-30T01:28:34;99771.84;;;22.08;86.90
42621;BME280;28252;53.336;-6.298;2022-10-30T01:32:17;99773.94;;;22.06;86.83
42621;BME280;28252;53.336;-6.298;2022-10-30T01:33:03;99773.94;;;22.06;86.84
42621;BME280;28252;53.336;-6.298;2022-10-30T01:35:17;99770.19;;;22.07;86.76
42621;BME280;28252;53.336;-6.298;2022-10-30T01:36:26;99764.78;;;22.07;86.65
42621;BME280;28252;53.336;-6.298;2022-10-30T01:37:33;99778.34;;;22.07;86.79
42621;BME280;28252;53.336;-6.298;2022-10-30T01:38:18;99778.34;;;22.07;86.62
42621;BME280;28252;53.336;-6.298;2022-10-30T01:38:54;99780.22;;;22.07;86.58
42621;BME280;28252;53.336;-6.298;2022-10-30T01:39:27;99777.72;;;22.05;86.71
42621;BME280;28252;53.336;-6.298;2022-10-30T01:40:05;99780.44;;;22.05;86.69
42621;BME280;28252;53.336;-6.298;2022-10-30T01:40:38;99766.88;;;22.05;86.69
42621;BME280;28252;53.336;-6.298;2022-10-30T01:41:09;99766.88;;;22.05;86.78
42621;BME280;28252;53.336;-6.298;2022-10-30T01:41:40;99763.28;;;22.05;86.69
42621;BME280;28252;53.336;-6.298;2022-10-30T01:43:00;99773.94;;;22.06;86.72
42621;BME280;28252;53.336;-6.298;2022-10-30T01:43:31;99772.28;;;22.05;86.54
42621;BME280;28252;53.336;-6.298;2022-10-30T01:44:17;99772.28;;;22.05;86.72
42621;BME280;28252;53.336;-6.298;2022-10-30T01:44:48;99768.72;;;22.05;86.54
42621;BME280;28252;53.336;-6.298;2022-10-30T01:47:21;99765.19;;;22.04;86.74
42621;BME280;28252;53.336;-6.298;2022-10-30T01:48:10;99768.72;;;22.05;86.66
42621;BME280;28252;53.336;-6.298;2022-10-30T01:48:50;99774.16;;;22.05;86.62
42621;BME280;28252;53.336;-6.298;2022-10-30T01:50:16;99771.44;;;22.05;86.72
42621;BME280;28252;53.336;-6.298;2022-10-30T01:52:27;99765.19;;;22.04;86.75
42621;BME280;28252;53.336;-6.298;2022-10-30T01:53:03;99768.94;;;22.03;86.67
42621;BME280;28252;53.336;-6.298;2022-10-30T01:59:30;99758.06;;;22.03;86.93
42621;BME280;28252;53.336;-6.298;2022-10-30T02:00:33;99766.22;;;22.03;86.94
42621;BME280;28252;53.336;-6.298;2022-10-30T02:01:05;99766.22;;;22.03;86.79
42621;BME280;28252;53.336;-6.298;2022-10-30T02:01:37;99755.38;;;22.03;86.91
42621;BME280;28252;53.336;-6.298;2022-10-30T02:02:09;99757.25;;;22.02;86.77
42621;BME280;28252;53.336;-6.298;2022-10-30T02:02:41;99756.44;;;22.02;86.79
42621;BME280;28252;53.336;-6.298;2022-10-30T02:03:12;99760.16;;;22.01;86.83
42621;BME280;28252;53.336;-6.298;2022-10-30T02:03:44;99745.59;;;22.02;86.96
42621;BME280;28252;53.336;-6.298;2022-10-30T02:04:16;99756.44;;;22.02;86.85
42621;BME280;28252;53.336;-6.298;2022-10-30T02:04:47;99757.47;;;22.01;86.88
42621;BME280;28252;53.336;-6.298;2022-10-30T02:05:32;99756.44;;;22.02;86.87
42621;BME280;28252;53.336;-6.298;2022-10-30T02:06:06;99754.75;;;22.01;86.90
42621;BME280;28252;53.336;-6.298;2022-10-30T02:06:37;99749.31;;;22.01;86.79
42621;BME280;28252;53.336;-6.298;2022-10-30T02:07:08;99755.59;;;22.01;86.79
42621;BME280;28252;53.336;-6.298;2022-10-30T02:07:41;99756.44;;;22.02;86.75
42621;BME280;28252;53.336;-6.298;2022-10-30T02:08:11;99754.75;;;22.01;86.82
42621;BME280;28252;53.336;-6.298;2022-10-30T02:08:43;99756.44;;;22.02;86.74
42621;BME280;28252;53.336;-6.298;2022-10-30T02:09:14;99750.19;;;22.01;86.70
42621;BME280;28252;53.336;-6.298;2022-10-30T02:09:46;99751.00;;;22.02;86.67
42621;BME280;28252;53.336;-6.298;2022-10-30T02:10:17;99755.59;;;22.01;86.73
42621;BME280;28252;53.336;-6.298;2022-10-30T02:10:48;99749.31;;;22.01;86.76
42621;BME280;28252;53.336;-6.298;2022-10-30T02:11:21;99756.44;;;22.02;86.80
42621;BME280;28252;53.336;-6.298;2022-10-30T02:11:53;99756.44;;;22.02;86.64
42621;BME280;28252;53.336;-6.298;2022-10-30T02:12:24;99752.88;;;22.01;86.65
42621;BME280;28252;53.336;-6.298;2022-10-30T02:12:56;99753.09;;;22.00;86.82
42621;BME280;28252;53.336;-6.298;2022-10-30T02:13:27;99755.59;;;22.01;86.76
42621;BME280;28252;53.336;-6.298;2022-10-30T02:13:59;99747.66;;;22.00;86.60
42621;BME280;28252;53.336;-6.298;2022-10-30T02:14:41;99754.75;;;22.01;86.69
42621;BME280;28252;53.336;-6.298;2022-10-30T02:15:13;99757.47;;;22.01;86.64
42621;BME280;28252;53.336;-6.298;2022-10-30T02:15:44;99760.16;;;22.01;86.71
42621;BME280;28252;53.336;-6.298;2022-10-30T02:16:17;99755.59;;;22.01;86.68
42621;BME280;28252;53.336;-6.298;2022-10-30T02:16:48;99749.31;;;22.01;86.59
42621;BME280;28252;53.336;-6.298;2022-10-30T02:17:20;99748.50;;;22.00;86.60
42621;BME280;28252;53.336;-6.298;2022-10-30T02:17:51;99752.03;;;22.01;86.51
42621;BME280;28252;53.336;-6.298;2022-10-30T02:18:22;99753.91;;;22.00;86.52
42621;BME280;28252;53.336;-6.298;2022-10-30T02:18:54;99753.09;;;22.00;86.38
42621;BME280;28252;53.336;-6.298;2022-10-30T02:19:25;99753.09;;;22.00;86.51
42621;BME280;28252;53.336;-6.298;2022-10-30T02:19:56;99747.66;;;22.00;86.51
42621;BME280;28252;53.336;-6.298;2022-10-30T02:20:27;99748.50;;;22.00;86.39
42621;BME280;28252;53.336;-6.298;2022-10-30T02:20:58;99749.53;;;21.99;86.44
42621;BME280;28252;53.336;-6.298;2022-10-30T02:21:29;99744.97;;;22.00;86.58
42621;BME280;28252;53.336;-6.298;2022-10-30T02:22:00;99751.41;;;21.99;86.25
42621;BME280;28252;53.336;-6.298;2022-10-30T02:22:31;99747.66;;;22.00;86.47
42621;BME280;28252;53.336;-6.298;2022-10-30T02:23:01;99753.91;;;22.00;86.34
42621;BME280;28252;53.336;-6.298;2022-10-30T02:23:32;99742.25;;;22.00;86.34
42621;BME280;28252;53.336;-6.298;2022-10-30T02:24:04;99743.06;;;22.00;86.33
42621;BME280;28252;53.336;-6.298;2022-10-30T02:24:35;99748.50;;;22.00;86.41
42621;BME280;28252;53.336;-6.298;2022-10-30T02:25:06;99746.59;;;22.01;86.34
42621;BME280;28252;53.336;-6.298;2022-10-30T02:25:37;99746.59;;;22.01;86.25
42621;BME280;28252;53.336;-6.298;2022-10-30T02:26:08;99740.56;;;21.99;86.35
42621;BME280;28252;53.336;-6.298;2022-10-30T02:26:38;99739.75;;;21.98;86.48
42621;BME280;28252;53.336;-6.298;2022-10-30T02:27:09;99744.31;;;21.98;86.34
42621;BME280;28252;53.336;-6.298;2022-10-30T02:27:41;99751.41;;;21.99;86.48
42621;BME280;28252;53.336;-6.298;2022-10-30T02:28:12;99757.66;;;21.99;86.45
42621;BME280;28252;53.336;-6.298;2022-10-30T02:28:43;99749.53;;;21.99;86.40
42621;BME280;28252;53.336;-6.298;2022-10-30T02:29:14;99748.91;;;21.97;86.28
42621;BME280;28252;53.336;-6.298;2022-10-30T02:29:44;99748.69;;;21.99;86.39
42621;BME280;28252;53.336;-6.298;2022-10-30T02:30:15;99749.72;;;21.98;86.48
42621;BME280;28252;53.336;-6.298;2022-10-30T02:30:46;99743.28;;;21.99;86.37
42621;BME280;28252;53.336;-6.298;2022-10-30T02:31:17;99754.94;;;21.99;86.26
42621;BME280;28252;53.336;-6.298;2022-10-30T02:31:48;99746.81;;;21.99;86.18
42621;BME280;28252;53.336;-6.298;2022-10-30T02:32:19;99753.28;;;21.98;86.15
42621;BME280;28252;53.336;-6.298;2022-10-30T02:32:50;99753.09;;;22.00;86.10
42621;BME280;28252;53.336;-6.298;2022-10-30T02:33:21;99747.66;;;22.00;86.17
42621;BME280;28252;53.336;-6.298;2022-10-30T02:33:54;99756.84;;;21.99;86.15
42621;BME280;28252;53.336;-6.298;2022-10-30T02:34:24;99749.72;;;21.98;86.11
42621;BME280;28252;53.336;-6.298;2022-10-30T02:34:55;99748.69;;;21.99;86.45
42621;BME280;28252;53.336;-6.298;2022-10-30T02:35:26;99745.16;;;21.98;86.12
42621;BME280;28252;53.336;-6.298;2022-10-30T02:35:57;99752.22;;;21.99;86.11
42621;BME280;28252;53.336;-6.298;2022-10-30T02:36:28;99753.28;;;21.98;86.02
42621;BME280;28252;53.336;-6.298;2022-10-30T02:36:59;99751.41;;;21.99;85.96
42621;BME280;28252;53.336;-6.298;2022-10-30T02:37:30;99751.41;;;21.99;86.04
42621;BME280;28252;53.336;-6.298;2022-10-30T02:38:02;99738.88;;;21.98;86.00
42621;BME280;28252;53.336;-6.298;2022-10-30T02:38:33;99741.59;;;21.98;86.13
42621;BME280;28252;53.336;-6.298;2022-10-30T02:39:04;99741.59;;;21.98;85.97
42621;BME280;28252;53.336;-6.298;2022-10-30T02:39:36;99744.31;;;21.98;85.97
42621;BME280;28252;53.336;-6.298;2022-10-30T02:40:07;99749.72;;;21.98;86.16
42621;BME280;28252;53.336;-6.298;2022-10-30T02:40:38;99743.47;;;21.97;86.10
42621;BME280;28252;53.336;-6.298;2022-10-30T02:41:10;99749.72;;;21.98;85.87
42621;BME280;28252;53.336;-6.298;2022-10-30T02:41:40;99742.66;;;21.97;86.00
42621;BME280;28252;53.336;-6.298;2022-10-30T02:42:11;99742.66;;;21.97;85.94
42621;BME280;28252;53.336;-6.298;2022-10-30T02:42:42;99738.88;;;21.98;85.88
42621;BME280;28252;53.336;-6.298;2022-10-30T02:43:13;99730.97;;;21.96;86.06
42621;BME280;28252;53.336;-6.298;2022-10-30T02:43:44;99738.25;;;21.96;86.06
42621;BME280;28252;53.336;-6.298;2022-10-30T02:44:15;99740.97;;;21.96;86.07
42621;BME280;28252;53.336;-6.298;2022-10-30T02:44:46;99737.22;;;21.97;86.01
42621;BME280;28252;53.336;-6.298;2022-10-30T02:45:17;99734.72;;;21.95;85.86
42621;BME280;28252;53.336;-6.298;2022-10-30T02:45:51;99735.53;;;21.96;85.89
42621;BME280;28252;53.336;-6.298;2022-10-30T02:46:22;99735.53;;;21.96;86.04
42621;BME280;28252;53.336;-6.298;2022-10-30T02:46:53;99734.72;;;21.95;85.90
42621;BME280;28252;53.336;-6.298;2022-10-30T02:47:24;99735.53;;;21.96;85.88
42621;BME280;28252;53.336;-6.298;2022-10-30T02:47:55;99740.13;;;21.95;85.96
42621;BME280;28252;53.336;-6.298;2022-10-30T02:48:25;99744.75;;;21.95;85.94
42621;BME280;28252;53.336;-6.298;2022-10-30T02:48:56;99737.44;;;21.95;85.83
42621;BME280;28252;53.336;-6.298;2022-10-30T02:49:27;99740.13;;;21.95;85.81
42621;BME280;28252;53.336;-6.298;2022-10-30T02:49:58;99733.03;;;21.94;85.89
42621;BME280;28252;53.336;-6.298;2022-10-30T02:50:29;99735.53;;;21.96;85.86
42621;BME280;28252;53.336;-6.298;2022-10-30T02:51:00;99734.72;;;21.95;85.77
42621;BME280;28252;53.336;-6.298;2022-10-30T02:51:31;99734.72;;;21.95;85.72
42621;BME280;28252;53.336;-6.298;2022-10-30T02:52:02;99732.00;;;21.95;85.88
42621;BME280;28252;53.336;-6.298;2022-10-30T02:52:33;99730.13;;;21.96;85.64
42621;BME280;28252;53.336;-6.298;2022-10-30T02:53:04;99729.28;;;21.95;85.91
42621;BME280;28252;53.336;-6.298;2022-10-30T02:53:35;99730.13;;;21.96;85.51
42621;BME280;28252;53.336;-6.298;2022-10-30T02:54:06;99735.53;;;21.96;85.73
42621;BME280;28252;53.336;-6.298;2022-10-30T02:54:37;99740.97;;;21.96;85.67
42621;BME280;28252;53.336;-6.298;2022-10-30T02:55:08;99730.13;;;21.96;85.72
42621;BME280;28252;53.336;-6.298;2022-10-30T02:55:38;99735.53;;;21.96;85.75
42621;BME280;28252;53.336;-6.298;2022-10-30T02:56:11;99729.28;;;21.95;85.89
42621;BME280;28252;53.336;-6.298;2022-10-30T02:56:42;99739.13;;;21.96;85.75
42621;BME280;28252;53.336;-6.298;2022-10-30T02:57:13;99739.31;;;21.95;85.91
42621;BME280;28252;53.336;-6.298;2022-10-30T02:57:44;99737.44;;;21.95;85.95
42621;BME280;28252;53.336;-6.298;2022-10-30T02:58:14;99733.91;;;21.95;85.60
42621;BME280;28252;53.336;-6.298;2022-10-30T02:58:45;99742.66;;;21.97;85.71
42621;BME280;28252;53.336;-6.298;2022-10-30T02:59:16;99728.47;;;21.95;85.64
42621;BME280;28252;53.336;-6.298;2022-10-30T02:59:47;99735.53;;;21.96;85.43
42621;BME280;28252;53.336;-6.298;2022-10-30T03:00:18;99740.13;;;21.95;85.62
42621;BME280;28252;53.336;-6.298;2022-10-30T03:00:49;99738.25;;;21.96;85.58
42621;BME280;28252;53.336;-6.298;2022-10-30T03:01:20;99739.13;;;21.96;85.54
42621;BME280;28252;53.336;-6.298;2022-10-30T03:01:51;99737.22;;;21.97;85.54
42621;BME280;28252;53.336;-6.298;2022-10-30T03:02:22;99730.13;;;21.96;85.54
42621;BME280;28252;53.336;-6.298;2022-10-30T03:02:53;99735.53;;;21.96;85.67
42621;BME280;28252;53.336;-6.298;2022-10-30T03:03:25;99735.53;;;21.96;85.61
42621;BME280;28252;53.336;-6.298;2022-10-30T03:03:56;99746.38;;;21.96;85.75
42621;BME280;28252;53.336;-6.298;2022-10-30T03:04:27;99729.91;;;21.97;85.71
42621;BME280;28252;53.336;-6.298;2022-10-30T03:04:58;99736.41;;;21.96;85.67
42621;BME280;28252;53.336;-6.298;2022-10-30T03:05:29;99740.97;;;21.96;85.72
42621;BME280;28252;53.336;-6.298;2022-10-30T03:06:00;99733.91;;;21.95;85.69
42621;BME280;28252;53.336;-6.298;2022-10-30T03:06:31;99735.75;;;21.94;85.84
42621;BME280;28252;53.336;-6.298;2022-10-30T03:07:02;99739.31;;;21.95;85.74
42621;BME280;28252;53.336;-6.298;2022-10-30T03:07:33;99742.84;;;21.95;85.63
42621;BME280;28252;53.336;-6.298;2022-10-30T03:08:04;99736.59;;;21.95;85.65
42621;BME280;28252;53.336;-6.298;2022-10-30T03:08:35;99736.59;;;21.95;85.71
42621;BME280;28252;53.336;-6.298;2022-10-30T03:09:06;99749.31;;;21.94;85.81
42621;BME280;28252;53.336;-6.298;2022-10-30T03:09:37;99745.75;;;21.94;85.75
42621;BME280;28252;53.336;-6.298;2022-10-30T03:10:08;99747.44;;;21.95;85.75
42621;BME280;28252;53.336;-6.298;2022-10-30T03:10:39;99743.06;;;21.94;85.84
42621;BME280;28252;53.336;-6.298;2022-10-30T03:11:11;99754.72;;;21.94;85.83
42621;BME280;28252;53.336;-6.298;2022-10-30T03:11:42;99757.63;;;21.93;85.86
42621;BME280;28252;53.336;-6.298;2022-10-30T03:12:14;99753.06;;;21.93;85.83
42621;BME280;28252;53.336;-6.298;2022-10-30T03:12:45;99752.88;;;21.95;85.88
42621;BME280;28252;53.336;-6.298;2022-10-30T03:13:15;99753.06;;;21.93;85.82